createdAt,value
2022-10-03T00:00:09.083Z,370
2022-10-03T00:01:07.949Z,368
2022-10-03T00:02:08.077Z,380
2022-10-03T00:03:08.630Z,377
2022-10-03T00:04:07.914Z,372
2022-10-03T00:05:07.815Z,370
2022-10-03T00:06:07.804Z,368
2022-10-03T00:07:07.656Z,361
2022-10-03T00:08:07.610Z,362
2022-10-03T00:09:07.672Z,357
2022-10-03T00:10:07.830Z,359
2022-10-03T00:11:07.369Z,357
2022-10-03T00:12:07.256Z,355
2022-10-03T00:13:08.287Z,352
2022-10-03T00:14:08.021Z,348
2022-10-03T00:15:08.109Z,350
2022-10-03T00:16:07.830Z,360
2022-10-03T00:17:07.836Z,361
2022-10-03T00:18:07.561Z,365
2022-10-03T00:19:07.414Z,363
2022-10-03T00:20:07.538Z,361
2022-10-03T00:22:07.451Z,355
2022-10-03T00:23:07.074Z,363
2022-10-03T00:24:08.097Z,368
2022-10-03T00:25:07.860Z,361
2022-10-03T00:26:08.021Z,360
2022-10-03T00:27:07.947Z,358
2022-10-03T00:28:07.877Z,362
2022-10-03T00:29:07.756Z,360
2022-10-03T00:30:07.962Z,352
2022-10-03T00:31:07.957Z,360
2022-10-03T00:32:07.770Z,368
2022-10-03T00:33:07.553Z,362
2022-10-03T00:34:07.506Z,364
2022-10-03T00:35:07.672Z,361
2022-10-03T00:36:07.719Z,369
2022-10-03T00:37:07.404Z,372
2022-10-03T00:38:06.893Z,375
2022-10-03T00:39:07.714Z,373
2022-10-03T00:40:07.714Z,374
2022-10-03T00:41:07.562Z,376
2022-10-03T00:42:07.657Z,375
2022-10-03T00:43:07.436Z,373
2022-10-03T00:44:07.087Z,376
2022-10-03T00:45:08.297Z,362
2022-10-03T00:46:07.152Z,357
2022-10-03T00:47:08.177Z,365
2022-10-03T00:48:07.809Z,369
2022-10-03T00:49:07.748Z,366
2022-10-03T00:50:07.653Z,355
2022-10-03T00:51:07.380Z,390
2022-10-03T00:52:06.887Z,371
2022-10-03T00:53:07.625Z,366
2022-10-03T00:54:07.360Z,362
2022-10-03T00:55:07.233Z,366
2022-10-03T00:56:06.916Z,364
2022-10-03T00:57:07.774Z,368
2022-10-03T00:58:07.380Z,359
2022-10-03T00:59:07.221Z,369
2022-10-03T01:00:08.567Z,362
2022-10-03T01:01:07.722Z,376
2022-10-03T01:02:07.550Z,368
2022-10-03T01:03:07.329Z,360
2022-10-03T01:04:07.092Z,359
2022-10-03T01:05:07.879Z,356
2022-10-03T01:06:07.664Z,362
2022-10-03T01:07:07.163Z,373
2022-10-03T01:08:07.904Z,366
2022-10-03T01:09:07.577Z,363
2022-10-03T01:10:07.191Z,345
2022-10-03T01:11:07.074Z,381
2022-10-03T01:12:07.935Z,372
2022-10-03T01:13:07.607Z,360
2022-10-03T01:14:07.228Z,371
2022-10-03T01:15:08.149Z,379
2022-10-03T01:16:07.950Z,376
2022-10-03T01:17:07.669Z,371
2022-10-03T01:18:07.447Z,372
2022-10-03T01:19:07.100Z,362
2022-10-03T01:20:08.010Z,375
2022-10-03T01:21:07.816Z,362
2022-10-03T01:22:07.435Z,351
2022-10-03T01:23:07.257Z,349
2022-10-03T01:24:07.176Z,359
2022-10-03T01:25:08.093Z,364
2022-10-03T01:26:07.953Z,375
2022-10-03T01:27:07.424Z,370
2022-10-03T01:28:07.156Z,371
2022-10-03T01:29:07.134Z,366
2022-10-03T01:31:07.224Z,359
2022-10-03T01:32:12.310Z,366
2022-10-03T01:33:07.188Z,340
2022-10-03T01:34:07.964Z,358
2022-10-03T01:35:07.798Z,368
2022-10-03T01:36:07.355Z,364
2022-10-03T01:37:07.095Z,356
2022-10-03T01:38:07.754Z,359
2022-10-03T01:39:07.634Z,361
2022-10-03T01:41:07.391Z,377
2022-10-03T01:42:07.075Z,369
2022-10-03T01:43:07.765Z,364
2022-10-03T01:45:07.205Z,362
2022-10-03T01:46:08.067Z,356
2022-10-03T01:47:08.025Z,368
2022-10-03T01:48:07.769Z,372
2022-10-03T01:49:07.308Z,367
2022-10-03T01:50:07.937Z,370
2022-10-03T01:51:07.450Z,365
2022-10-03T01:52:07.390Z,383
2022-10-03T01:53:07.378Z,352
2022-10-03T01:54:06.915Z,354
2022-10-03T01:55:07.595Z,361
2022-10-03T01:56:07.245Z,370
2022-10-03T01:57:07.964Z,371
2022-10-03T01:58:07.437Z,377
2022-10-03T01:59:07.033Z,380
2022-10-03T02:00:08.920Z,375
2022-10-03T02:01:07.302Z,370
2022-10-03T02:03:06.936Z,360
2022-10-03T02:04:07.808Z,353
2022-10-03T02:05:07.653Z,355
2022-10-03T02:06:07.484Z,364
2022-10-03T02:07:07.126Z,365
2022-10-03T02:08:07.784Z,362
2022-10-03T02:09:07.620Z,366
2022-10-03T02:10:07.522Z,364
2022-10-03T02:12:06.919Z,366
2022-10-03T02:13:07.525Z,358
2022-10-03T02:14:07.454Z,355
2022-10-03T02:16:06.883Z,359
2022-10-03T02:17:07.618Z,354
2022-10-03T02:18:07.383Z,361
2022-10-03T02:19:06.997Z,363
2022-10-03T02:21:08.070Z,353
2022-10-03T02:22:07.472Z,352
2022-10-03T02:23:07.135Z,360
2022-10-03T02:24:08.018Z,373
2022-10-03T02:25:07.788Z,366
2022-10-03T02:26:07.605Z,374
2022-10-03T02:27:08.273Z,368
2022-10-03T02:29:07.604Z,368
2022-10-03T02:30:07.735Z,366
2022-10-03T02:31:07.606Z,363
2022-10-03T02:32:07.516Z,368
2022-10-03T02:33:07.381Z,395
2022-10-03T02:34:07.567Z,355
2022-10-03T02:35:07.572Z,362
2022-10-03T02:36:07.769Z,370
2022-10-03T02:37:07.552Z,377
2022-10-03T02:38:07.537Z,380
2022-10-03T02:39:07.227Z,386
2022-10-03T02:40:07.954Z,377
2022-10-03T02:41:07.802Z,374
2022-10-03T02:42:08.140Z,377
2022-10-03T02:43:07.710Z,378
2022-10-03T02:44:07.352Z,385
2022-10-03T02:45:07.472Z,380
2022-10-03T02:46:07.201Z,378
2022-10-03T02:47:07.339Z,383
2022-10-03T02:48:30.740Z,387
2022-10-03T02:49:07.345Z,383
2022-10-03T02:50:07.407Z,379
2022-10-03T02:51:07.270Z,375
2022-10-03T02:52:07.050Z,366
2022-10-03T02:53:07.825Z,355
2022-10-03T02:54:07.763Z,391
2022-10-03T02:55:07.477Z,381
2022-10-03T02:56:07.148Z,384
2022-10-03T02:57:07.885Z,372
2022-10-03T02:58:07.421Z,378
2022-10-03T02:59:07.394Z,377
2022-10-03T03:00:08.174Z,381
2022-10-03T03:01:07.497Z,383
2022-10-03T03:02:07.912Z,381
2022-10-03T03:03:07.912Z,386
2022-10-03T03:04:07.521Z,388
2022-10-03T03:05:07.556Z,381
2022-10-03T03:07:07.123Z,383
2022-10-03T03:08:07.917Z,375
2022-10-03T03:09:07.572Z,382
2022-10-03T03:10:07.554Z,376
2022-10-03T03:11:07.799Z,378
2022-10-03T03:12:08.056Z,380
2022-10-03T03:13:08.037Z,381
2022-10-03T03:14:07.692Z,380
2022-10-03T03:15:07.922Z,368
2022-10-03T03:16:07.722Z,376
2022-10-03T03:17:07.679Z,386
2022-10-03T03:18:07.862Z,390
2022-10-03T03:19:07.600Z,394
2022-10-03T03:20:07.398Z,397
2022-10-03T03:21:07.119Z,390
2022-10-03T03:22:08.206Z,381
2022-10-03T03:23:07.878Z,385
2022-10-03T03:24:07.762Z,388
2022-10-03T03:25:07.987Z,395
2022-10-03T03:26:08.021Z,394
2022-10-03T03:27:07.407Z,390
2022-10-03T03:28:07.124Z,391
2022-10-03T03:29:08.225Z,386
2022-10-03T03:30:08.231Z,387
2022-10-03T03:31:07.244Z,382
2022-10-03T03:32:07.287Z,379
2022-10-03T03:33:07.381Z,384
2022-10-03T03:34:07.117Z,387
2022-10-03T03:35:07.800Z,395
2022-10-03T03:36:07.493Z,370
2022-10-03T03:37:07.328Z,376
2022-10-03T03:38:06.903Z,390
2022-10-03T03:39:07.632Z,392
2022-10-03T03:40:07.598Z,385
2022-10-03T03:41:07.462Z,386
2022-10-03T03:42:07.146Z,389
2022-10-03T03:43:08.163Z,378
2022-10-03T03:44:07.906Z,379
2022-10-03T03:45:08.111Z,376
2022-10-03T03:46:08.015Z,380
2022-10-03T03:47:07.801Z,384
2022-10-03T03:48:07.518Z,381
2022-10-03T03:49:07.101Z,384
2022-10-03T03:50:07.833Z,381
2022-10-03T03:51:07.605Z,388
2022-10-03T03:52:07.655Z,381
2022-10-03T03:53:07.806Z,373
2022-10-03T03:54:07.565Z,370
2022-10-03T03:56:07.136Z,391
2022-10-03T03:57:08.243Z,357
2022-10-03T03:58:07.902Z,370
2022-10-03T03:59:07.234Z,372
2022-10-03T04:00:08.929Z,373
2022-10-03T04:01:08.142Z,368
2022-10-03T04:02:08.390Z,378
2022-10-03T04:03:07.482Z,385
2022-10-03T04:04:07.425Z,379
2022-10-03T04:05:07.305Z,374
2022-10-03T04:06:07.247Z,372
2022-10-03T04:07:07.521Z,377
2022-10-03T04:08:07.341Z,384
2022-10-03T04:09:07.011Z,371
2022-10-03T04:11:07.880Z,376
2022-10-03T04:12:07.638Z,381
2022-10-03T04:13:07.443Z,392
2022-10-03T04:14:07.285Z,384
2022-10-03T04:15:07.655Z,377
2022-10-03T04:16:07.680Z,382
2022-10-03T04:17:08.027Z,400
2022-10-03T04:18:07.950Z,368
2022-10-03T04:19:07.650Z,373
2022-10-03T04:20:07.690Z,383
2022-10-03T04:21:07.815Z,395
2022-10-03T04:22:08.036Z,402
2022-10-03T04:23:08.008Z,403
2022-10-03T04:24:07.915Z,405
2022-10-03T04:25:08.280Z,396
2022-10-03T04:26:07.472Z,395
2022-10-03T04:27:07.153Z,401
2022-10-03T04:28:08.440Z,395
2022-10-03T04:29:07.501Z,392
2022-10-03T04:30:07.741Z,401
2022-10-03T04:31:07.539Z,393
2022-10-03T04:32:07.829Z,394
2022-10-03T04:33:07.705Z,390
2022-10-03T04:34:07.531Z,388
2022-10-03T04:35:07.847Z,392
2022-10-03T04:36:08.291Z,389
2022-10-03T04:37:08.243Z,382
2022-10-03T04:39:07.912Z,381
2022-10-03T04:41:07.887Z,392
2022-10-03T04:42:08.057Z,397
2022-10-03T04:43:08.191Z,398
2022-10-03T04:44:07.222Z,392
2022-10-03T04:45:07.129Z,390
2022-10-03T04:46:08.292Z,394
2022-10-03T04:47:07.317Z,396
2022-10-03T04:48:07.064Z,394
2022-10-03T04:49:08.037Z,381
2022-10-03T04:50:08.273Z,388
2022-10-03T04:51:07.331Z,390
2022-10-03T04:52:07.145Z,389
2022-10-03T04:53:08.223Z,396
2022-10-03T04:54:08.021Z,392
2022-10-03T04:55:08.081Z,381
2022-10-03T04:57:08.583Z,387
2022-10-03T04:58:07.192Z,389
2022-10-03T04:59:08.213Z,399
2022-10-03T05:00:08.758Z,386
2022-10-03T05:02:07.786Z,396
2022-10-03T05:03:08.054Z,400
2022-10-03T05:05:08.268Z,391
2022-10-03T05:06:07.459Z,392
2022-10-03T05:07:07.291Z,393
2022-10-03T05:08:07.335Z,386
2022-10-03T05:09:07.635Z,389
2022-10-03T05:11:07.797Z,393
2022-10-03T05:12:07.845Z,387
2022-10-03T05:13:07.794Z,386
2022-10-03T05:14:07.858Z,382
2022-10-03T05:15:08.153Z,388
2022-10-03T05:16:08.539Z,378
2022-10-03T05:17:07.431Z,379
2022-10-03T05:18:07.548Z,391
2022-10-03T05:20:07.764Z,387
2022-10-03T05:21:08.036Z,392
2022-10-03T05:22:07.883Z,391
2022-10-03T05:23:07.944Z,397
2022-10-03T05:24:07.969Z,391
2022-10-03T05:25:08.240Z,384
2022-10-03T05:26:39.751Z,391
2022-10-03T05:27:07.298Z,398
2022-10-03T05:28:07.443Z,396
2022-10-03T05:29:07.718Z,399
2022-10-03T05:30:07.891Z,395
2022-10-03T05:31:08.184Z,394
2022-10-03T05:32:07.367Z,401
2022-10-03T05:33:08.654Z,392
2022-10-03T05:34:08.174Z,396
2022-10-03T05:36:08.171Z,383
2022-10-03T05:37:08.375Z,384
2022-10-03T05:39:08.501Z,395
2022-10-03T05:40:07.446Z,411
2022-10-03T05:41:07.380Z,386
2022-10-03T05:42:22.053Z,382
2022-10-03T05:43:07.222Z,402
2022-10-03T05:44:07.071Z,404
2022-10-03T05:45:07.258Z,398
2022-10-03T05:46:07.553Z,396
2022-10-03T05:47:07.765Z,388
2022-10-03T05:48:07.752Z,393
2022-10-03T05:49:07.617Z,397
2022-10-03T05:50:11.650Z,396
2022-10-03T05:51:07.791Z,394
2022-10-03T05:52:07.795Z,397
2022-10-03T05:53:07.844Z,392
2022-10-03T05:54:07.556Z,389
2022-10-03T05:55:07.468Z,390
2022-10-03T05:56:07.317Z,384
2022-10-03T05:57:07.517Z,381
2022-10-03T05:58:07.492Z,390
2022-10-03T05:59:07.332Z,388
2022-10-03T06:00:07.825Z,387
2022-10-03T06:01:07.651Z,388
2022-10-03T06:02:08.074Z,363
2022-10-03T06:03:08.339Z,369
2022-10-03T06:04:07.882Z,385
2022-10-03T06:05:08.556Z,384
2022-10-03T06:06:08.264Z,388
2022-10-03T06:08:08.261Z,394
2022-10-03T06:09:08.397Z,391
2022-10-03T06:10:07.447Z,389
2022-10-03T06:12:07.737Z,388
2022-10-03T06:14:07.912Z,395
2022-10-03T06:16:07.536Z,397
2022-10-03T06:17:08.071Z,396
2022-10-03T06:18:08.141Z,395
2022-10-03T06:20:07.248Z,388
2022-10-03T06:21:07.564Z,386
2022-10-03T06:22:07.695Z,394
2022-10-03T06:23:07.945Z,397
2022-10-03T06:24:07.887Z,385
2022-10-03T06:25:07.947Z,373
2022-10-03T06:26:08.373Z,380
2022-10-03T06:27:07.319Z,390
2022-10-03T06:28:07.481Z,394
2022-10-03T06:29:07.842Z,387
2022-10-03T06:30:08.224Z,386
2022-10-03T06:31:07.568Z,393
2022-10-03T06:32:12.987Z,380
2022-10-03T06:33:08.405Z,370
2022-10-03T06:34:15.598Z,367
2022-10-03T06:35:07.624Z,384
2022-10-03T06:36:07.753Z,387
2022-10-03T06:37:07.918Z,379
2022-10-03T06:38:07.846Z,375
2022-10-03T06:39:07.999Z,374
2022-10-03T06:40:10.092Z,366
2022-10-03T06:41:07.516Z,364
2022-10-03T06:42:07.973Z,366
2022-10-03T06:43:08.117Z,372
2022-10-03T06:44:08.363Z,365
2022-10-03T06:45:07.502Z,372
2022-10-03T06:46:07.574Z,371
2022-10-03T06:47:07.791Z,372
2022-10-03T06:48:07.763Z,376
2022-10-03T06:49:07.723Z,375
2022-10-03T06:50:07.936Z,369
2022-10-03T06:51:08.360Z,370
2022-10-03T06:52:07.290Z,369
2022-10-03T06:53:07.562Z,352
2022-10-03T06:54:07.733Z,353
2022-10-03T06:55:07.805Z,351
2022-10-03T06:56:08.133Z,366
2022-10-03T06:57:08.364Z,358
2022-10-03T06:58:07.394Z,362
2022-10-03T06:59:07.575Z,371
2022-10-03T07:00:08.671Z,368
2022-10-03T07:01:08.079Z,363
2022-10-03T07:02:07.508Z,361
2022-10-03T07:03:08.127Z,333
2022-10-03T07:04:08.301Z,342
2022-10-03T07:05:08.602Z,352
2022-10-03T07:06:07.637Z,360
2022-10-03T07:07:07.532Z,352
2022-10-03T07:08:07.591Z,354
2022-10-03T07:09:07.751Z,359
2022-10-03T07:10:07.721Z,362
2022-10-03T07:11:07.837Z,358
2022-10-03T07:12:13.457Z,350
2022-10-03T07:13:07.107Z,353
2022-10-03T07:14:08.157Z,354
2022-10-03T07:15:08.536Z,369
2022-10-03T07:16:25.980Z,366
2022-10-03T07:17:07.648Z,362
2022-10-03T07:18:08.198Z,356
2022-10-03T07:19:08.287Z,359
2022-10-03T07:20:08.318Z,342
2022-10-03T07:21:07.298Z,344
2022-10-03T07:22:07.309Z,340
2022-10-03T07:23:07.211Z,370
2022-10-03T07:24:08.481Z,350
2022-10-03T07:25:07.292Z,348
2022-10-03T07:26:07.363Z,356
2022-10-03T07:27:07.545Z,362
2022-10-03T07:28:07.445Z,355
2022-10-03T07:29:07.705Z,362
2022-10-03T07:30:07.769Z,370
2022-10-03T07:31:07.983Z,376
2022-10-03T07:32:07.486Z,370
2022-10-03T07:33:07.568Z,357
2022-10-03T07:34:07.460Z,352
2022-10-03T07:35:07.437Z,345
2022-10-03T07:36:07.160Z,354
2022-10-03T07:37:08.520Z,363
2022-10-03T07:38:07.447Z,358
2022-10-03T07:39:07.781Z,346
2022-10-03T07:40:07.714Z,345
2022-10-03T07:41:07.814Z,357
2022-10-03T07:42:07.873Z,365
2022-10-03T07:43:07.780Z,334
2022-10-03T07:44:07.705Z,341
2022-10-03T07:45:07.846Z,355
2022-10-03T07:46:08.136Z,359
2022-10-03T07:47:07.645Z,357
2022-10-03T07:48:07.844Z,354
2022-10-03T07:49:07.898Z,353
2022-10-03T07:50:07.455Z,348
2022-10-03T07:51:07.453Z,346
2022-10-03T07:52:07.630Z,355
2022-10-03T07:53:07.572Z,359
2022-10-03T07:54:08.015Z,357
2022-10-03T07:55:08.034Z,353
2022-10-03T07:57:07.723Z,346
2022-10-03T07:59:07.738Z,349
2022-10-03T08:00:08.258Z,358
2022-10-03T08:01:07.520Z,337
2022-10-03T08:02:07.590Z,340
2022-10-03T08:03:07.949Z,352
2022-10-03T08:04:08.460Z,362
2022-10-03T08:05:07.523Z,361
2022-10-03T08:06:07.585Z,347
2022-10-03T08:07:07.867Z,342
2022-10-03T08:08:07.817Z,354
2022-10-03T08:09:07.749Z,347
2022-10-03T08:10:07.710Z,352
2022-10-03T08:11:08.080Z,356
2022-10-03T08:12:08.071Z,354
2022-10-03T08:13:07.884Z,350
2022-10-03T08:14:08.051Z,345
2022-10-03T08:15:08.455Z,351
2022-10-03T08:16:07.875Z,342
2022-10-03T08:17:08.177Z,343
2022-10-03T08:18:07.277Z,349
2022-10-03T08:19:10.549Z,348
2022-10-03T08:20:08.154Z,369
2022-10-03T08:21:08.180Z,367
2022-10-03T08:22:08.096Z,351
2022-10-03T08:23:08.035Z,344
2022-10-03T08:24:07.799Z,345
2022-10-03T08:25:07.976Z,342
2022-10-03T08:26:08.234Z,351
2022-10-03T08:27:08.075Z,354
2022-10-03T08:28:08.292Z,350
2022-10-03T08:29:08.258Z,342
2022-10-03T08:30:07.480Z,344
2022-10-03T08:31:07.703Z,351
2022-10-03T08:32:08.364Z,355
2022-10-03T08:33:07.114Z,345
2022-10-03T08:34:08.060Z,347
2022-10-03T08:35:08.009Z,354
2022-10-03T08:36:08.327Z,349
2022-10-03T08:37:07.190Z,351
2022-10-03T08:38:08.102Z,363
2022-10-03T08:39:08.296Z,344
2022-10-03T08:42:08.176Z,343
2022-10-03T08:43:08.179Z,341
2022-10-03T08:45:07.973Z,345
2022-10-03T08:46:08.025Z,348
2022-10-03T08:47:08.121Z,341
2022-10-03T08:48:08.102Z,347
2022-10-03T08:50:08.520Z,345
2022-10-03T08:51:07.188Z,344
2022-10-03T08:52:07.998Z,343
2022-10-03T08:53:07.804Z,344
2022-10-03T08:54:07.686Z,347
2022-10-03T08:55:07.557Z,345
2022-10-03T08:56:07.443Z,340
2022-10-03T08:57:07.224Z,350
2022-10-03T08:58:07.352Z,360
2022-10-03T08:59:07.308Z,351
2022-10-03T09:00:07.891Z,341
2022-10-03T09:01:07.769Z,339
2022-10-03T09:02:07.971Z,340
2022-10-03T09:03:33.412Z,343
2022-10-03T09:04:07.050Z,348
2022-10-03T09:05:07.194Z,346
2022-10-03T09:06:07.255Z,345
2022-10-03T09:07:18.462Z,352
2022-10-03T09:08:07.705Z,345
2022-10-03T09:09:08.135Z,347
2022-10-03T09:10:08.298Z,342
2022-10-03T09:11:07.612Z,345
2022-10-03T09:12:07.756Z,348
2022-10-03T09:13:07.841Z,345
2022-10-03T09:14:07.743Z,339
2022-10-03T09:15:07.824Z,342
2022-10-03T09:16:08.080Z,339
2022-10-03T09:17:07.510Z,340
2022-10-03T09:18:07.752Z,336
2022-10-03T09:19:07.655Z,329
2022-10-03T09:20:07.646Z,321
2022-10-03T09:21:07.651Z,326
2022-10-03T09:22:07.669Z,331
2022-10-03T09:23:07.607Z,327
2022-10-03T09:24:07.779Z,338
2022-10-03T09:25:08.006Z,337
2022-10-03T09:27:08.050Z,335
2022-10-03T09:28:08.168Z,337
2022-10-03T09:29:07.986Z,336
2022-10-03T09:30:08.213Z,330
2022-10-03T09:31:08.366Z,321
2022-10-03T09:32:07.695Z,334
2022-10-03T09:33:07.680Z,361
2022-10-03T09:34:07.739Z,322
2022-10-03T09:35:07.684Z,332
2022-10-03T09:36:07.743Z,324
2022-10-03T09:38:07.267Z,326
2022-10-03T09:39:08.551Z,330
2022-10-03T09:40:07.449Z,333
2022-10-03T09:41:07.544Z,336
2022-10-03T09:42:07.666Z,340
2022-10-03T09:43:07.691Z,351
2022-10-03T09:44:07.829Z,342
2022-10-03T09:45:07.730Z,340
2022-10-03T09:46:08.230Z,334
2022-10-03T09:47:07.630Z,329
2022-10-03T09:48:07.557Z,337
2022-10-03T09:49:07.315Z,350
2022-10-03T09:50:07.261Z,345
2022-10-03T09:51:07.067Z,353
2022-10-03T09:52:09.050Z,331
2022-10-03T09:53:08.124Z,334
2022-10-03T09:54:08.110Z,335
2022-10-03T09:56:07.652Z,328
2022-10-03T09:57:07.415Z,319
2022-10-03T09:58:07.157Z,320
2022-10-03T09:59:08.235Z,322
2022-10-03T10:00:09.360Z,323
2022-10-03T10:01:07.851Z,327
2022-10-03T10:02:08.113Z,317
2022-10-03T10:03:08.368Z,330
2022-10-03T10:04:08.306Z,342
2022-10-03T10:05:08.181Z,336
2022-10-03T10:06:07.342Z,338
2022-10-03T10:07:07.352Z,335
2022-10-03T10:08:07.404Z,339
2022-10-03T10:09:07.446Z,320
2022-10-03T10:10:07.537Z,323
2022-10-03T10:11:07.597Z,333
2022-10-03T10:12:07.701Z,328
2022-10-03T10:13:07.879Z,335
2022-10-03T10:14:08.580Z,337
2022-10-03T10:16:08.131Z,333
2022-10-03T10:17:07.265Z,335
2022-10-03T10:18:07.310Z,327
2022-10-03T10:19:07.367Z,318
2022-10-03T10:20:07.599Z,326
2022-10-03T10:21:07.996Z,336
2022-10-03T10:22:08.475Z,340
2022-10-03T10:23:07.504Z,342
2022-10-03T10:24:07.663Z,337
2022-10-03T10:25:07.998Z,330
2022-10-03T10:26:08.291Z,358
2022-10-03T10:27:07.086Z,374
2022-10-03T10:28:07.307Z,344
2022-10-03T10:29:07.574Z,335
2022-10-03T10:30:07.951Z,334
2022-10-03T10:31:07.877Z,324
2022-10-03T10:32:08.173Z,328
2022-10-03T10:33:07.111Z,345
2022-10-03T10:34:08.243Z,343
2022-10-03T10:35:08.319Z,333
2022-10-03T10:36:07.468Z,331
2022-10-03T10:37:07.866Z,327
2022-10-03T10:38:08.019Z,336
2022-10-03T10:39:08.415Z,333
2022-10-03T10:40:07.316Z,339
2022-10-03T10:41:07.325Z,336
2022-10-03T10:42:08.167Z,339
2022-10-03T10:43:07.495Z,340
2022-10-03T10:44:07.866Z,327
2022-10-03T10:45:08.012Z,332
2022-10-03T10:46:08.188Z,336
2022-10-03T10:47:07.649Z,335
2022-10-03T10:48:07.737Z,334
2022-10-03T10:49:08.096Z,339
2022-10-03T10:50:08.317Z,345
2022-10-03T10:51:07.489Z,343
2022-10-03T10:52:07.307Z,337
2022-10-03T10:53:07.422Z,329
2022-10-03T10:55:07.591Z,336
2022-10-03T10:56:07.910Z,339
2022-10-03T10:57:08.135Z,329
2022-10-03T10:58:08.209Z,326
2022-10-03T10:59:08.317Z,340
2022-10-03T11:00:08.422Z,341
2022-10-03T11:01:07.467Z,333
2022-10-03T11:02:07.889Z,346
2022-10-03T11:03:08.336Z,339
2022-10-03T11:04:07.576Z,336
2022-10-03T11:05:07.832Z,333
2022-10-03T11:06:08.098Z,330
2022-10-03T11:08:08.349Z,337
2022-10-03T11:09:07.458Z,330
2022-10-03T11:10:07.901Z,336
2022-10-03T11:11:08.405Z,341
2022-10-03T11:12:07.548Z,328
2022-10-03T11:13:07.751Z,321
2022-10-03T11:14:07.765Z,325
2022-10-03T11:15:07.866Z,332
2022-10-03T11:16:07.929Z,340
2022-10-03T11:17:08.728Z,334
2022-10-03T11:18:07.969Z,328
2022-10-03T11:19:07.980Z,344
2022-10-03T11:20:07.942Z,333
2022-10-03T11:21:08.180Z,332
2022-10-03T11:22:08.254Z,339
2022-10-03T11:23:08.435Z,325
2022-10-03T11:26:08.582Z,332
2022-10-03T11:27:07.501Z,334
2022-10-03T11:28:07.582Z,338
2022-10-03T11:29:07.921Z,339
2022-10-03T11:30:08.513Z,335
2022-10-03T11:31:07.883Z,331
2022-10-03T11:32:08.399Z,335
2022-10-03T11:33:07.563Z,338
2022-10-03T11:34:07.807Z,340
2022-10-03T11:35:07.624Z,338
2022-10-03T11:36:07.692Z,327
2022-10-03T11:37:07.879Z,361
2022-10-03T11:38:08.115Z,349
2022-10-03T11:39:08.173Z,346
2022-10-03T11:40:08.430Z,335
2022-10-03T11:41:07.905Z,333
2022-10-03T11:43:08.518Z,332
2022-10-03T11:44:07.550Z,322
2022-10-03T11:45:07.983Z,316
2022-10-03T11:46:08.399Z,328
2022-10-03T11:47:07.889Z,331
2022-10-03T11:48:26.953Z,334
2022-10-03T11:49:07.957Z,345
2022-10-03T11:50:08.069Z,329
2022-10-03T11:51:08.227Z,332
2022-10-03T11:52:07.215Z,335
2022-10-03T11:53:07.059Z,345
2022-10-03T11:54:30.054Z,332
2022-10-03T11:55:07.673Z,352
2022-10-03T11:56:07.792Z,353
2022-10-03T11:57:07.925Z,348
2022-10-03T11:58:08.040Z,352
2022-10-03T11:59:07.815Z,345
2022-10-03T12:00:27.831Z,340
2022-10-03T12:01:08.409Z,347
2022-10-03T12:02:07.606Z,337
2022-10-03T12:03:07.754Z,332
2022-10-03T12:04:08.270Z,330
2022-10-03T12:05:07.630Z,331
2022-10-03T12:06:07.944Z,342
2022-10-03T12:07:08.128Z,355
2022-10-03T12:08:08.310Z,356
2022-10-03T12:09:07.343Z,353
2022-10-03T12:10:07.364Z,342
2022-10-03T12:11:07.618Z,337
2022-10-03T12:12:07.500Z,344
2022-10-03T12:13:07.679Z,350
2022-10-03T12:14:11.242Z,344
2022-10-03T12:15:08.440Z,348
2022-10-03T12:16:08.182Z,347
2022-10-03T12:17:08.461Z,341
2022-10-03T12:19:07.937Z,345
2022-10-03T12:20:07.954Z,352
2022-10-03T12:21:07.987Z,357
2022-10-03T12:22:07.883Z,354
2022-10-03T12:23:08.202Z,339
2022-10-03T12:25:08.493Z,338
2022-10-03T12:26:07.690Z,325
2022-10-03T12:27:07.571Z,336
2022-10-03T12:28:07.719Z,344
2022-10-03T12:29:07.834Z,335
2022-10-03T12:30:07.984Z,327
2022-10-03T12:31:08.091Z,336
2022-10-03T12:32:07.251Z,337
2022-10-03T12:33:06.878Z,334
2022-10-03T12:34:07.639Z,331
2022-10-03T12:35:07.775Z,328
2022-10-03T12:36:08.149Z,331
2022-10-03T12:37:08.050Z,336
2022-10-03T12:38:07.621Z,331
2022-10-03T12:39:07.587Z,327
2022-10-03T12:40:07.400Z,328
2022-10-03T12:41:07.376Z,344
2022-10-03T12:42:08.439Z,343
2022-10-03T12:43:07.228Z,339
2022-10-03T12:44:07.266Z,347
2022-10-03T12:45:07.353Z,342
2022-10-03T12:46:07.453Z,331
2022-10-03T12:47:07.616Z,335
2022-10-03T12:48:07.554Z,337
2022-10-03T12:49:07.555Z,336
2022-10-03T12:50:07.779Z,320
2022-10-03T12:51:07.833Z,321
2022-10-03T12:52:07.606Z,325
2022-10-03T12:53:07.441Z,327
2022-10-03T12:54:07.454Z,329
2022-10-03T12:55:07.264Z,331
2022-10-03T12:56:07.072Z,324
2022-10-03T12:57:07.933Z,321
2022-10-03T12:58:08.024Z,314
2022-10-03T12:59:07.792Z,328
2022-10-03T13:00:08.249Z,313
2022-10-03T13:01:08.484Z,353
2022-10-03T13:02:07.717Z,324
2022-10-03T13:03:07.909Z,328
2022-10-03T13:04:07.936Z,329
2022-10-03T13:05:07.743Z,331
2022-10-03T13:06:07.698Z,327
2022-10-03T13:07:07.637Z,324
2022-10-03T13:09:08.209Z,336
2022-10-03T13:10:08.443Z,338
2022-10-03T13:11:07.386Z,334
2022-10-03T13:13:07.567Z,332
2022-10-03T13:14:07.636Z,329
2022-10-03T13:15:07.547Z,327
2022-10-03T13:16:07.712Z,330
2022-10-03T13:17:08.183Z,342
2022-10-03T13:18:08.442Z,338
2022-10-03T13:19:07.601Z,325
2022-10-03T13:20:07.776Z,344
2022-10-03T13:21:16.472Z,347
2022-10-03T13:22:07.371Z,334
2022-10-03T13:23:07.339Z,324
2022-10-03T13:24:07.612Z,333
2022-10-03T13:25:07.797Z,334
2022-10-03T13:26:11.820Z,337
2022-10-03T13:27:07.815Z,333
2022-10-03T13:28:07.630Z,332
2022-10-03T13:29:07.787Z,336
2022-10-03T13:31:08.146Z,342
2022-10-03T13:32:07.400Z,330
2022-10-03T13:33:07.248Z,329
2022-10-03T13:34:08.349Z,318
2022-10-03T13:35:08.387Z,356
2022-10-03T13:36:07.451Z,315
2022-10-03T13:37:12.350Z,324
2022-10-03T13:38:07.271Z,328
2022-10-03T13:39:07.269Z,331
2022-10-03T13:40:08.620Z,325
2022-10-03T13:41:07.769Z,317
2022-10-03T13:42:07.847Z,322
2022-10-03T13:43:07.655Z,331
2022-10-03T13:44:07.596Z,328
2022-10-03T13:45:07.648Z,340
2022-10-03T13:46:07.732Z,351
2022-10-03T13:47:08.291Z,361
2022-10-03T13:48:07.430Z,357
2022-10-03T13:49:07.236Z,344
2022-10-03T13:50:07.284Z,343
2022-10-03T13:52:07.874Z,342
2022-10-03T13:53:07.714Z,321
2022-10-03T13:54:07.868Z,328
2022-10-03T13:55:07.772Z,334
2022-10-03T13:56:07.970Z,336
2022-10-03T13:57:07.628Z,346
2022-10-03T13:58:07.709Z,342
2022-10-03T13:59:07.255Z,339
2022-10-03T14:00:07.782Z,335
2022-10-03T14:01:21.345Z,325
2022-10-03T14:02:07.501Z,318
2022-10-03T14:03:21.535Z,330
2022-10-03T14:04:07.017Z,344
2022-10-03T14:06:07.762Z,332
2022-10-03T14:07:07.782Z,339
2022-10-03T14:08:07.787Z,342
2022-10-03T14:09:08.109Z,331
2022-10-03T14:10:08.791Z,330
2022-10-03T14:11:07.732Z,332
2022-10-03T14:12:07.818Z,328
2022-10-03T14:13:07.704Z,327
2022-10-03T14:14:07.963Z,320
2022-10-03T14:15:08.327Z,316
2022-10-03T14:16:07.382Z,313
2022-10-03T14:17:07.519Z,320
2022-10-03T14:18:07.596Z,338
2022-10-03T14:19:07.487Z,336
2022-10-03T14:20:07.499Z,339
2022-10-03T14:21:07.120Z,344
2022-10-03T14:22:08.082Z,346
2022-10-03T14:23:07.921Z,349
2022-10-03T14:24:07.588Z,341
2022-10-03T14:25:07.538Z,328
2022-10-03T14:26:07.194Z,329
2022-10-03T14:27:07.986Z,333
2022-10-03T14:28:07.686Z,325
2022-10-03T14:29:07.727Z,334
2022-10-03T14:30:08.077Z,331
2022-10-03T14:31:08.264Z,321
2022-10-03T14:32:22.519Z,314
2022-10-03T14:33:08.264Z,313
2022-10-03T14:34:07.720Z,322